sensor_id;sensor_type;location;lat;lon;timestamp;pressure;altitude;pressure_sealevel;temperature;humidity
31299;BME280;17927;52.350;13.402;2023-01-29T00:01:26;102347.56;;;3.50;51.16
31299;BME280;17927;52.350;13.402;2023-01-29T00:03:51;102343.94;;;3.51;51.20
31299;BME280;17927;52.350;13.402;2023-01-29T00:06:17;102351.97;;;3.51;51.07
31299;BME280;17927;52.350;13.402;2023-01-29T00:08:42;102347.56;;;3.50;51.21
31299;BME280;17927;52.350;13.402;2023-01-29T00:11:08;102344.84;;;3.52;51.18
31299;BME280;17927;52.350;13.402;2023-01-29T00:13:34;102343.91;;;3.53;51.30
31299;BME280;17927;52.350;13.402;2023-01-29T00:16:00;102344.75;;;3.53;51.23
31299;BME280;17927;52.350;13.402;2023-01-29T00:18:25;102335.78;;;3.56;51.27
31299;BME280;17927;52.350;13.402;2023-01-29T00:20:51;102337.44;;;3.58;51.26
31299;BME280;17927;52.350;13.402;2023-01-29T00:23:17;102333.78;;;3.61;51.25
31299;BME280;17927;52.350;13.402;2023-01-29T00:25:44;102329.31;;;3.61;51.44
31299;BME280;17927;52.350;13.402;2023-01-29T00:28:10;102330.19;;;3.62;51.33
31299;BME280;17927;52.350;13.402;2023-01-29T00:30:36;102332.84;;;3.62;51.32
31299;BME280;17927;52.350;13.402;2023-01-29T00:33:02;102327.50;;;3.62;51.32
31299;BME280;17927;52.350;13.402;2023-01-29T00:35:27;102330.19;;;3.62;51.30
31299;BME280;17927;52.350;13.402;2023-01-29T00:37:56;102312.41;;;3.61;51.50
31299;BME280;17927;52.350;13.402;2023-01-29T00:40:22;102311.47;;;3.62;51.47
31299;BME280;17927;52.350;13.402;2023-01-29T00:42:48;102304.34;;;3.62;51.45
31299;BME280;17927;52.350;13.402;2023-01-29T00:45:33;102299.03;;;3.61;51.49
31299;BME280;17927;52.350;13.402;2023-01-29T00:47:58;102307.00;;;3.62;51.53
31299;BME280;17927;52.350;13.402;2023-01-29T00:50:24;102302.59;;;3.61;51.56
31299;BME280;17927;52.350;13.402;2023-01-29T00:52:49;102296.31;;;3.62;51.57
31299;BME280;17927;52.350;13.402;2023-01-29T00:55:16;102288.28;;;3.62;51.60
31299;BME280;17927;52.350;13.402;2023-01-29T00:57:41;102285.63;;;3.62;51.67
31299;BME280;17927;52.350;13.402;2023-01-29T01:00:09;102286.56;;;3.61;51.62
31299;BME280;17927;52.350;13.402;2023-01-29T01:02:35;102291.91;;;3.61;51.69
31299;BME280;17927;52.350;13.402;2023-01-29T01:05:19;102282.94;;;3.62;51.36
31299;BME280;17927;52.350;13.402;2023-01-29T01:07:46;102289.03;;;3.66;51.73
31299;BME280;17927;52.350;13.402;2023-01-29T01:10:17;102291.59;;;3.69;51.64
31299;BME280;17927;52.350;13.402;2023-01-29T01:12:54;102292.56;;;3.66;51.86
31299;BME280;17927;52.350;13.402;2023-01-29T01:15:21;102288.13;;;3.67;51.82
31299;BME280;17927;52.350;13.402;2023-01-29T01:17:47;102291.63;;;3.68;51.89
31299;BME280;17927;52.350;13.402;2023-01-29T01:20:15;102289.78;;;3.70;51.94
31299;BME280;17927;52.350;13.402;2023-01-29T01:22:40;102296.88;;;3.71;52.02
31299;BME280;17927;52.350;13.402;2023-01-29T01:25:06;102295.00;;;3.73;51.84
31299;BME280;17927;52.350;13.402;2023-01-29T01:27:31;102302.19;;;3.72;51.82
31299;BME280;17927;52.350;13.402;2023-01-29T01:29:56;102297.69;;;3.73;51.85
31299;BME280;17927;52.350;13.402;2023-01-29T01:32:22;102294.09;;;3.74;52.09
31299;BME280;17927;52.350;13.402;2023-01-29T01:34:47;102294.09;;;3.74;52.09
31299;BME280;17927;52.350;13.402;2023-01-29T01:37:12;102302.97;;;3.74;52.04
31299;BME280;17927;52.350;13.402;2023-01-29T01:39:37;102298.56;;;3.73;52.04
31299;BME280;17927;52.350;13.402;2023-01-29T01:42:08;102293.16;;;3.75;51.98
31299;BME280;17927;52.350;13.402;2023-01-29T01:45:03;102289.56;;;3.76;52.08
31299;BME280;17927;52.350;13.402;2023-01-29T01:50:03;102293.03;;;3.78;52.24
31299;BME280;17927;52.350;13.402;2023-01-29T01:52:32;102289.44;;;3.79;52.21
31299;BME280;17927;52.350;13.402;2023-01-29T01:54:59;102294.78;;;3.79;51.84
31299;BME280;17927;52.350;13.402;2023-01-29T01:57:28;102291.22;;;3.78;52.03
31299;BME280;17927;52.350;13.402;2023-01-29T01:59:59;102294.78;;;3.79;52.18
31299;BME280;17927;52.350;13.402;2023-01-29T02:02:33;102297.47;;;3.79;52.27
31299;BME280;17927;52.350;13.402;2023-01-29T02:05:18;102294.72;;;3.80;52.33
31299;BME280;17927;52.350;13.402;2023-01-29T02:08:01;102284.91;;;3.81;52.30
31299;BME280;17927;52.350;13.402;2023-01-29T02:10:46;102286.63;;;3.82;52.26
31299;BME280;17927;52.350;13.402;2023-01-29T02:13:13;102290.09;;;3.84;52.23
31299;BME280;17927;52.350;13.402;2023-01-29T02:15:41;102282.88;;;3.86;52.45
31299;BME280;17927;52.350;13.402;2023-01-29T02:18:11;102274.06;;;3.84;52.32
31299;BME280;17927;52.350;13.402;2023-01-29T02:20:37;102272.19;;;3.86;52.31
31299;BME280;17927;52.350;13.402;2023-01-29T02:32:14;102267.91;;;3.82;52.48
31299;BME280;17927;52.350;13.402;2023-01-29T02:34:58;102265.22;;;3.82;52.66
31299;BME280;17927;52.350;13.402;2023-01-29T02:40:49;102266.19;;;3.81;52.30
31299;BME280;17927;52.350;13.402;2023-01-29T02:43:24;102265.19;;;3.84;52.56
31299;BME280;17927;52.350;13.402;2023-01-29T02:46:10;102269.53;;;3.86;52.50
31299;BME280;17927;52.350;13.402;2023-01-29T02:48:43;102265.09;;;3.85;52.42
31299;BME280;17927;52.350;13.402;2023-01-29T02:51:17;102272.16;;;3.88;52.37
31299;BME280;17927;52.350;13.402;2023-01-29T02:53:59;102268.47;;;3.90;52.43
31299;BME280;17927;52.350;13.402;2023-01-29T02:56:26;102267.91;;;3.82;52.63
31299;BME280;17927;52.350;13.402;2023-01-29T02:58:59;102259.84;;;3.84;52.53
31299;BME280;17927;52.350;13.402;2023-01-29T03:01:33;102252.63;;;3.86;52.61
31299;BME280;17927;52.350;13.402;2023-01-29T03:04:05;102250.81;;;3.86;52.50
31299;BME280;17927;52.350;13.402;2023-01-29T03:06:36;102244.47;;;3.89;52.50
31299;BME280;17927;52.350;13.402;2023-01-29T03:10:02;102237.41;;;3.88;52.42
31299;BME280;17927;52.350;13.402;2023-01-29T03:12:25;102245.53;;;3.85;52.66
31299;BME280;17927;52.350;13.402;2023-01-29T03:14:59;102241.84;;;3.87;52.84
31299;BME280;17927;52.350;13.402;2023-01-29T03:17:46;102238.25;;;3.88;52.61
31299;BME280;17927;52.350;13.402;2023-01-29T03:20:16;102251.53;;;3.90;52.63
31299;BME280;17927;52.350;13.402;2023-01-29T03:22:44;102241.66;;;3.92;52.69
31299;BME280;17927;52.350;13.402;2023-01-29T03:25:14;102241.63;;;3.93;52.57
31299;BME280;17927;52.350;13.402;2023-01-29T03:27:59;102233.63;;;3.92;52.59
31299;BME280;17927;52.350;13.402;2023-01-29T03:31:09;102235.47;;;3.91;52.67
31299;BME280;17927;52.350;13.402;2023-01-29T03:34:07;102235.50;;;3.90;52.64
31299;BME280;17927;52.350;13.402;2023-01-29T03:36:38;102236.38;;;3.90;52.62
31299;BME280;17927;52.350;13.402;2023-01-29T03:39:09;102234.56;;;3.91;52.69
31299;BME280;17927;52.350;13.402;2023-01-29T03:45:05;102229.22;;;3.91;52.70
31299;BME280;17927;52.350;13.402;2023-01-29T03:50:37;102220.34;;;3.90;52.62
31299;BME280;17927;52.350;13.402;2023-01-29T03:53:41;102205.16;;;3.91;53.01
31299;BME280;17927;52.350;13.402;2023-01-29T03:56:25;102199.81;;;3.91;52.78
31299;BME280;17927;52.350;13.402;2023-01-29T03:59:00;102206.03;;;3.91;52.89
31299;BME280;17927;52.350;13.402;2023-01-29T04:01:32;102200.69;;;3.91;52.72
31299;BME280;17927;52.350;13.402;2023-01-29T04:04:10;102186.41;;;3.92;52.67
31299;BME280;17927;52.350;13.402;2023-01-29T04:06:40;102185.50;;;3.92;52.72
31299;BME280;17927;52.350;13.402;2023-01-29T04:09:19;102180.25;;;3.90;52.76
31299;BME280;17927;52.350;13.402;2023-01-29T04:11:50;102170.47;;;3.89;52.76
31299;BME280;17927;52.350;13.402;2023-01-29T04:14:17;102168.66;;;3.90;52.74
31299;BME280;17927;52.350;13.402;2023-01-29T04:16:47;102166.88;;;3.90;52.92
31299;BME280;17927;52.350;13.402;2023-01-29T04:19:13;102163.31;;;3.90;52.84
31299;BME280;17927;52.350;13.402;2023-01-29T04:21:39;102165.03;;;3.91;52.83
31299;BME280;17927;52.350;13.402;2023-01-29T04:24:05;102153.38;;;3.93;52.76
31299;BME280;17927;52.350;13.402;2023-01-29T04:26:35;102146.16;;;3.95;52.86
31299;BME280;17927;52.350;13.402;2023-01-29T04:29:36;102131.84;;;3.96;52.95
31299;BME280;17927;52.350;13.402;2023-01-29T04:32:13;102135.50;;;3.94;53.00
31299;BME280;17927;52.350;13.402;2023-01-29T04:35:08;102126.50;;;3.96;52.93
31299;BME280;17927;52.350;13.402;2023-01-29T04:37:42;102117.59;;;3.96;53.10
31299;BME280;17927;52.350;13.402;2023-01-29T04:40:17;102115.72;;;3.98;53.11
31299;BME280;17927;52.350;13.402;2023-01-29T04:43:02;102108.63;;;3.97;52.88
31299;BME280;17927;52.350;13.402;2023-01-29T04:49:12;102106.91;;;3.96;53.21
31299;BME280;17927;52.350;13.402;2023-01-29T04:51:46;102113.19;;;3.95;53.44
31299;BME280;17927;52.350;13.402;2023-01-29T04:54:30;102114.84;;;3.97;53.35
31299;BME280;17927;52.350;13.402;2023-01-29T04:57:22;102119.22;;;4.00;53.31
31299;BME280;17927;52.350;13.402;2023-01-29T04:59:55;102117.38;;;4.01;53.45
31299;BME280;17927;52.350;13.402;2023-01-29T05:02:23;102129.69;;;4.05;53.29
31299;BME280;17927;52.350;13.402;2023-01-29T05:04:51;102128.63;;;4.09;53.47
31299;BME280;17927;52.350;13.402;2023-01-29T05:07:18;102117.84;;;4.10;53.44
31299;BME280;17927;52.350;13.402;2023-01-29T05:09:45;102116.94;;;4.11;53.10
31299;BME280;17927;52.350;13.402;2023-01-29T05:12:13;102115.91;;;4.14;53.31
31299;BME280;17927;52.350;13.402;2023-01-29T05:14:42;102125.63;;;4.17;53.51
31299;BME280;17927;52.350;13.402;2023-01-29T05:17:13;102112.25;;;4.17;53.45
31299;BME280;17927;52.350;13.402;2023-01-29T05:19:39;102126.44;;;4.19;53.48
31299;BME280;17927;52.350;13.402;2023-01-29T05:22:05;102119.19;;;4.21;53.57
31299;BME280;17927;52.350;13.402;2023-01-29T05:24:34;102121.81;;;4.22;53.50
31299;BME280;17927;52.350;13.402;2023-01-29T05:26:59;102121.72;;;4.24;53.43
31299;BME280;17927;52.350;13.402;2023-01-29T05:29:45;102122.63;;;4.24;53.55
31299;BME280;17927;52.350;13.402;2023-01-29T05:32:11;102131.44;;;4.26;53.66
31299;BME280;17927;52.350;13.402;2023-01-29T05:34:37;102125.16;;;4.28;53.65
31299;BME280;17927;52.350;13.402;2023-01-29T05:37:02;102126.88;;;4.29;53.46
31299;BME280;17927;52.350;13.402;2023-01-29T05:39:27;102138.38;;;4.31;53.82
31299;BME280;17927;52.350;13.402;2023-01-29T05:41:52;102125.88;;;4.31;53.51
31299;BME280;17927;52.350;13.402;2023-01-29T05:44:18;102137.38;;;4.33;53.75
31299;BME280;17927;52.350;13.402;2023-01-29T05:46:43;102138.25;;;4.34;53.75
31299;BME280;17927;52.350;13.402;2023-01-29T05:49:09;102138.25;;;4.34;53.94
31299;BME280;17927;52.350;13.402;2023-01-29T05:51:34;102139.06;;;4.36;54.09
31299;BME280;17927;52.350;13.402;2023-01-29T05:53:59;102139.97;;;4.35;54.31
31299;BME280;17927;52.350;13.402;2023-01-29T05:56:24;102137.38;;;4.33;54.74
31299;BME280;17927;52.350;13.402;2023-01-29T05:58:50;102141.84;;;4.33;54.36
31299;BME280;17927;52.350;13.402;2023-01-29T06:01:21;102141.84;;;4.33;54.76
31299;BME280;17927;52.350;13.402;2023-01-29T06:03:46;102149.38;;;4.24;54.88
31299;BME280;17927;52.350;13.402;2023-01-29T06:06:12;102144.88;;;4.25;54.90
31299;BME280;17927;52.350;13.402;2023-01-29T06:08:37;102156.31;;;4.29;55.03
31299;BME280;17927;52.350;13.402;2023-01-29T06:11:05;102168.69;;;4.31;55.06
31299;BME280;17927;52.350;13.402;2023-01-29T06:13:31;102161.53;;;4.32;55.20
31299;BME280;17927;52.350;13.402;2023-01-29T06:15:56;102169.53;;;4.32;55.08
31299;BME280;17927;52.350;13.402;2023-01-29T06:18:21;102176.72;;;4.31;55.43
31299;BME280;17927;52.350;13.402;2023-01-29T06:20:46;102173.09;;;4.32;55.58
31299;BME280;17927;52.350;13.402;2023-01-29T06:23:12;102172.19;;;4.33;55.71
31299;BME280;17927;52.350;13.402;2023-01-29T06:25:37;102163.22;;;4.34;55.85
31299;BME280;17927;52.350;13.402;2023-01-29T06:28:02;102169.50;;;4.33;55.71
31299;BME280;17927;52.350;13.402;2023-01-29T06:30:28;102168.69;;;4.31;55.83
31299;BME280;17927;52.350;13.402;2023-01-29T06:32:57;102169.63;;;4.30;56.11
31299;BME280;17927;52.350;13.402;2023-01-29T06:35:23;102169.63;;;4.30;56.09
31299;BME280;17927;52.350;13.402;2023-01-29T06:37:48;102159.84;;;4.29;56.41
31299;BME280;17927;52.350;13.402;2023-01-29T06:40:14;102155.44;;;4.28;56.29
31299;BME280;17927;52.350;13.402;2023-01-29T06:42:39;102164.41;;;4.27;56.57
31299;BME280;17927;52.350;13.402;2023-01-29T06:45:04;102161.72;;;4.27;56.66
31299;BME280;17927;52.350;13.402;2023-01-29T06:47:30;102166.16;;;4.28;56.73
31299;BME280;17927;52.350;13.402;2023-01-29T06:49:55;102162.63;;;4.28;56.79
31299;BME280;17927;52.350;13.402;2023-01-29T06:52:20;102160.72;;;4.30;56.73
31299;BME280;17927;52.350;13.402;2023-01-29T06:54:46;102173.25;;;4.29;57.06
31299;BME280;17927;52.350;13.402;2023-01-29T06:57:11;102175.03;;;4.29;56.66
31299;BME280;17927;52.350;13.402;2023-01-29T06:59:36;102171.50;;;4.28;57.08
31299;BME280;17927;52.350;13.402;2023-01-29T07:02:02;102174.09;;;4.30;57.19
31299;BME280;17927;52.350;13.402;2023-01-29T07:04:28;102173.25;;;4.29;57.13
31299;BME280;17927;52.350;13.402;2023-01-29T07:06:53;102167.88;;;4.29;57.05
31299;BME280;17927;52.350;13.402;2023-01-29T07:09:19;102167.81;;;4.31;57.39
31299;BME280;17927;52.350;13.402;2023-01-29T07:11:44;102169.53;;;4.32;56.92
31299;BME280;17927;52.350;13.402;2023-01-29T07:14:09;102166.00;;;4.31;57.27
31299;BME280;17927;52.350;13.402;2023-01-29T07:16:35;102167.75;;;4.32;57.35
31299;BME280;17927;52.350;13.402;2023-01-29T07:19:00;102166.66;;;4.36;57.17
31299;BME280;17927;52.350;13.402;2023-01-29T07:21:25;102170.91;;;4.42;57.19
31299;BME280;17927;52.350;13.402;2023-01-29T07:23:51;102159.09;;;4.46;57.22
31299;BME280;17927;52.350;13.402;2023-01-29T07:26:16;102150.09;;;4.49;57.08
31299;BME280;17927;52.350;13.402;2023-01-29T07:28:41;102148.97;;;4.53;57.24
31299;BME280;17927;52.350;13.402;2023-01-29T07:31:07;102152.47;;;4.55;57.19
31299;BME280;17927;52.350;13.402;2023-01-29T07:33:35;102157.75;;;4.56;57.40
31299;BME280;17927;52.350;13.402;2023-01-29T07:36:00;102161.25;;;4.59;57.32
31299;BME280;17927;52.350;13.402;2023-01-29T07:38:25;102156.81;;;4.57;57.30
31299;BME280;17927;52.350;13.402;2023-01-29T07:40:51;102155.94;;;4.57;57.22
31299;BME280;17927;52.350;13.402;2023-01-29T07:43:17;102157.69;;;4.58;57.33
31299;BME280;17927;52.350;13.402;2023-01-29T07:45:42;102159.50;;;4.57;57.60
31299;BME280;17927;52.350;13.402;2023-01-29T07:48:10;102154.06;;;4.59;57.37
31299;BME280;17927;52.350;13.402;2023-01-29T07:50:35;102159.34;;;4.61;57.36
31299;BME280;17927;52.350;13.402;2023-01-29T07:53:01;102146.84;;;4.61;57.42
31299;BME280;17927;52.350;13.402;2023-01-29T07:55:27;102134.41;;;4.60;57.45
31299;BME280;17927;52.350;13.402;2023-01-29T08:00:22;102131.63;;;4.62;57.57
31299;BME280;17927;52.350;13.402;2023-01-29T08:02:47;102125.34;;;4.63;57.62
31299;BME280;17927;52.350;13.402;2023-01-29T08:05:12;102116.38;;;4.64;57.65
31299;BME280;17927;52.350;13.402;2023-01-29T08:07:37;102118.13;;;4.65;57.54
31299;BME280;17927;52.350;13.402;2023-01-29T08:10:03;102124.28;;;4.67;57.98
31299;BME280;17927;52.350;13.402;2023-01-29T08:12:28;102123.41;;;4.66;57.80
31299;BME280;17927;52.350;13.402;2023-01-29T08:14:54;102126.09;;;4.66;57.96
31299;BME280;17927;52.350;13.402;2023-01-29T08:17:19;102122.44;;;4.67;57.95
31299;BME280;17927;52.350;13.402;2023-01-29T08:19:44;102113.56;;;4.67;57.88
31299;BME280;17927;52.350;13.402;2023-01-29T08:22:09;102115.38;;;4.66;57.69
31299;BME280;17927;52.350;13.402;2023-01-29T08:24:35;102112.72;;;4.66;58.07
31299;BME280;17927;52.350;13.402;2023-01-29T08:27:00;102115.31;;;4.68;58.25
31299;BME280;17927;52.350;13.402;2023-01-29T08:29:25;102121.50;;;4.68;58.24
31299;BME280;17927;52.350;13.402;2023-01-29T08:31:50;102119.72;;;4.69;58.28
31299;BME280;17927;52.350;13.402;2023-01-29T08:34:16;102126.81;;;4.70;58.01
31299;BME280;17927;52.350;13.402;2023-01-29T08:36:41;102119.63;;;4.70;58.42
31299;BME280;17927;52.350;13.402;2023-01-29T08:39:06;102108.94;;;4.70;58.78
31299;BME280;17927;52.350;13.402;2023-01-29T08:41:31;102106.25;;;4.70;58.72
31299;BME280;17927;52.350;13.402;2023-01-29T08:43:57;102106.25;;;4.70;58.76
31299;BME280;17927;52.350;13.402;2023-01-29T08:46:24;102101.69;;;4.72;58.80
31299;BME280;17927;52.350;13.402;2023-01-29T08:48:49;102107.00;;;4.74;58.88
31299;BME280;17927;52.350;13.402;2023-01-29T08:51:14;102110.53;;;4.75;58.90
31299;BME280;17927;52.350;13.402;2023-01-29T08:53:40;102114.84;;;4.77;59.05
31299;BME280;17927;52.350;13.402;2023-01-29T08:56:05;102115.75;;;4.78;59.06
31299;BME280;17927;52.350;13.402;2023-01-29T08:58:30;102109.38;;;4.80;58.83
31299;BME280;17927;52.350;13.402;2023-01-29T09:00:56;102111.19;;;4.80;58.93
31299;BME280;17927;52.350;13.402;2023-01-29T09:03:21;102112.00;;;4.82;59.15
31299;BME280;17927;52.350;13.402;2023-01-29T09:05:46;102109.31;;;4.82;59.12
31299;BME280;17927;52.350;13.402;2023-01-29T09:08:11;102111.91;;;4.83;58.98
31299;BME280;17927;52.350;13.402;2023-01-29T09:10:37;102115.38;;;4.85;59.06
31299;BME280;17927;52.350;13.402;2023-01-29T09:13:03;102103.78;;;4.85;59.28
31299;BME280;17927;52.350;13.402;2023-01-29T09:15:28;102103.72;;;4.86;59.12
31299;BME280;17927;52.350;13.402;2023-01-29T09:17:53;102094.75;;;4.87;59.04
31299;BME280;17927;52.350;13.402;2023-01-29T09:20:19;102096.41;;;4.90;59.31
31299;BME280;17927;52.350;13.402;2023-01-29T09:22:45;102082.88;;;4.93;59.13
31299;BME280;17927;52.350;13.402;2023-01-29T09:25:11;102101.50;;;4.96;59.31
31299;BME280;17927;52.350;13.402;2023-01-29T09:27:36;102095.09;;;4.99;59.25
31299;BME280;17927;52.350;13.402;2023-01-29T09:30:03;102096.75;;;5.01;59.19
31299;BME280;17927;52.350;13.402;2023-01-29T09:32:28;102101.13;;;5.04;59.28
31299;BME280;17927;52.350;13.402;2023-01-29T09:34:55;102096.53;;;5.06;59.06
31299;BME280;17927;52.350;13.402;2023-01-29T09:37:20;102093.56;;;5.12;59.07
31299;BME280;17927;52.350;13.402;2023-01-29T09:39:47;102096.91;;;5.17;59.16
31299;BME280;17927;52.350;13.402;2023-01-29T09:42:24;102087.75;;;5.22;59.12
31299;BME280;17927;52.350;13.402;2023-01-29T09:47:35;102091.78;;;5.30;59.09
31299;BME280;17927;52.350;13.402;2023-01-29T09:52:48;102074.56;;;5.36;59.19
31299;BME280;17927;52.350;13.402;2023-01-29T09:55:31;102067.13;;;5.41;59.07
31299;BME280;17927;52.350;13.402;2023-01-29T09:58:04;102066.19;;;5.42;59.01
31299;BME280;17927;52.350;13.402;2023-01-29T10:00:56;102055.22;;;5.47;58.97
31299;BME280;17927;52.350;13.402;2023-01-29T10:06:35;102044.22;;;5.53;59.08
31299;BME280;17927;52.350;13.402;2023-01-29T10:09:31;102049.34;;;5.58;59.19
31299;BME280;17927;52.350;13.402;2023-01-29T10:15:22;102040.91;;;5.66;58.89
31299;BME280;17927;52.350;13.402;2023-01-29T10:18:12;102045.94;;;5.72;59.18
31299;BME280;17927;52.350;13.402;2023-01-29T10:23:31;102029.13;;;5.86;59.21
31299;BME280;17927;52.350;13.402;2023-01-29T10:25:57;102002.94;;;5.91;59.23
31299;BME280;17927;52.350;13.402;2023-01-29T10:28:28;102005.19;;;5.99;59.11
31299;BME280;17927;52.350;13.402;2023-01-29T10:31:03;102012.88;;;6.06;58.97
31299;BME280;17927;52.350;13.402;2023-01-29T10:33:38;102016.97;;;6.14;58.90
31299;BME280;17927;52.350;13.402;2023-01-29T10:36:12;102018.34;;;6.21;58.83
31299;BME280;17927;52.350;13.402;2023-01-29T10:38:48;102022.34;;;6.30;58.73
31299;BME280;17927;52.350;13.402;2023-01-29T10:41:41;102034.50;;;6.37;58.69
31299;BME280;17927;52.350;13.402;2023-01-29T10:44:24;102034.16;;;6.43;58.41
31299;BME280;17927;52.350;13.402;2023-01-29T10:50:12;102021.34;;;6.48;57.99
31299;BME280;17927;52.350;13.402;2023-01-29T10:53:13;102017.72;;;6.49;57.75
31299;BME280;17927;52.350;13.402;2023-01-29T10:56:02;102010.50;;;6.50;57.75
31299;BME280;17927;52.350;13.402;2023-01-29T10:58:37;101997.78;;;6.53;57.82
31299;BME280;17927;52.350;13.402;2023-01-29T11:01:07;101999.28;;;6.59;57.87
31299;BME280;17927;52.350;13.402;2023-01-29T11:03:33;101997.16;;;6.64;57.55
31299;BME280;17927;52.350;13.402;2023-01-29T11:06:21;101999.53;;;6.70;57.25
31299;BME280;17927;52.350;13.402;2023-01-29T11:11:42;101965.78;;;6.81;57.40
31299;BME280;17927;52.350;13.402;2023-01-29T11:14:21;101969.88;;;6.88;57.48
31299;BME280;17927;52.350;13.402;2023-01-29T11:16:49;101973.13;;;6.93;57.36
31299;BME280;17927;52.350;13.402;2023-01-29T11:19:15;101966.56;;;6.99;56.91
31299;BME280;17927;52.350;13.402;2023-01-29T11:21:58;101956.56;;;7.01;56.90
31299;BME280;17927;52.350;13.402;2023-01-29T11:24:24;101951.03;;;7.04;56.94
31299;BME280;17927;52.350;13.402;2023-01-29T11:26:51;101952.56;;;7.08;56.46
31299;BME280;17927;52.350;13.402;2023-01-29T11:29:41;101953.44;;;7.09;56.51
31299;BME280;17927;52.350;13.402;2023-01-29T11:32:12;101951.91;;;7.05;56.25
31299;BME280;17927;52.350;13.402;2023-01-29T11:35:16;101944.78;;;7.04;56.18
31299;BME280;17927;52.350;13.402;2023-01-29T11:37:45;101932.31;;;7.03;56.03
31299;BME280;17927;52.350;13.402;2023-01-29T11:42:49;101944.41;;;7.10;56.28
31299;BME280;17927;52.350;13.402;2023-01-29T11:47:49;101936.84;;;7.16;55.75
31299;BME280;17927;52.350;13.402;2023-01-29T11:50:23;101927.75;;;7.19;56.00
31299;BME280;17927;52.350;13.402;2023-01-29T11:52:49;101919.50;;;7.22;55.73
31299;BME280;17927;52.350;13.402;2023-01-29T11:55:34;101912.13;;;7.26;55.58
31299;BME280;17927;52.350;13.402;2023-01-29T11:58:05;101905.78;;;7.27;55.63
31299;BME280;17927;52.350;13.402;2023-01-29T12:00:38;101911.84;;;7.30;55.51
31299;BME280;17927;52.350;13.402;2023-01-29T12:03:11;101908.84;;;7.35;55.56
31299;BME280;17927;52.350;13.402;2023-01-29T12:05:52;101908.78;;;7.37;55.42
31299;BME280;17927;52.350;13.402;2023-01-29T12:08:22;101903.19;;;7.40;55.70
31299;BME280;17927;52.350;13.402;2023-01-29T12:10:48;101907.34;;;7.45;55.79
31299;BME280;17927;52.350;13.402;2023-01-29T12:15:44;101899.78;;;7.52;55.54
31299;BME280;17927;52.350;13.402;2023-01-29T12:20:47;101884.97;;;7.59;55.20
31299;BME280;17927;52.350;13.402;2023-01-29T12:23:24;101877.56;;;7.63;55.03
31299;BME280;17927;52.350;13.402;2023-01-29T12:26:00;101875.56;;;7.67;55.16
31299;BME280;17927;52.350;13.402;2023-01-29T12:28:43;101875.56;;;7.67;55.16
31299;BME280;17927;52.350;13.402;2023-01-29T12:31:35;101867.38;;;7.68;55.03
31299;BME280;17927;52.350;13.402;2023-01-29T12:34:23;101862.91;;;7.69;54.99
31299;BME280;17927;52.350;13.402;2023-01-29T12:36:54;101862.91;;;7.69;54.61
31299;BME280;17927;52.350;13.402;2023-01-29T12:39:20;101849.22;;;7.72;54.53
31299;BME280;17927;52.350;13.402;2023-01-29T12:41:56;101849.91;;;7.75;54.51
31299;BME280;17927;52.350;13.402;2023-01-29T12:44:30;101848.06;;;7.76;54.68
31299;BME280;17927;52.350;13.402;2023-01-29T12:46:59;101831.75;;;7.79;54.82
31299;BME280;17927;52.350;13.402;2023-01-29T12:49:32;101827.97;;;7.82;54.44
31299;BME280;17927;52.350;13.402;2023-01-29T12:52:12;101813.56;;;7.83;54.40
31299;BME280;17927;52.350;13.402;2023-01-29T12:54:44;101822.59;;;7.82;54.58
31299;BME280;17927;52.350;13.402;2023-01-29T12:57:20;101827.97;;;7.82;54.55
31299;BME280;17927;52.350;13.402;2023-01-29T12:59:52;101821.84;;;7.80;54.13
31299;BME280;17927;52.350;13.402;2023-01-29T13:02:29;101824.63;;;7.78;54.03
31299;BME280;17927;52.350;13.402;2023-01-29T13:05:21;101833.84;;;7.74;54.08
31299;BME280;17927;52.350;13.402;2023-01-29T13:07:53;101838.69;;;7.69;54.01
31299;BME280;17927;52.350;13.402;2023-01-29T13:10:28;101837.91;;;7.67;53.83
31299;BME280;17927;52.350;13.402;2023-01-29T13:13:00;101829.84;;;7.67;53.87
31299;BME280;17927;52.350;13.402;2023-01-29T13:15:37;101842.41;;;7.66;53.79
31299;BME280;17927;52.350;13.402;2023-01-29T13:18:20;101839.84;;;7.65;54.12
31299;BME280;17927;52.350;13.402;2023-01-29T13:20:48;101827.34;;;7.64;54.13
31299;BME280;17927;52.350;13.402;2023-01-29T13:23:19;101813.91;;;7.64;54.27
31299;BME280;17927;52.350;13.402;2023-01-29T13:25:48;101819.88;;;7.54;54.38
31299;BME280;17927;52.350;13.402;2023-01-29T13:28:18;101815.22;;;7.56;54.42
31299;BME280;17927;52.350;13.402;2023-01-29T13:30:45;101812.34;;;7.59;54.01
31299;BME280;17927;52.350;13.402;2023-01-29T13:33:21;101816.88;;;7.59;53.59
31299;BME280;17927;52.350;13.402;2023-01-29T13:35:47;101828.59;;;7.58;53.93
31299;BME280;17927;52.350;13.402;2023-01-29T13:38:29;101817.94;;;7.56;53.64
31299;BME280;17927;52.350;13.402;2023-01-29T13:41:02;101821.56;;;7.55;53.68
31299;BME280;17927;52.350;13.402;2023-01-29T13:43:34;101819.09;;;7.52;53.63
31299;BME280;17927;52.350;13.402;2023-01-29T13:46:08;101820.13;;;7.50;53.60
31299;BME280;17927;52.350;13.402;2023-01-29T13:48:40;101813.13;;;7.47;53.60
31299;BME280;17927;52.350;13.402;2023-01-29T13:51:10;101816.00;;;7.44;54.10
31299;BME280;17927;52.350;13.402;2023-01-29T13:53:42;101815.25;;;7.42;53.80
31299;BME280;17927;52.350;13.402;2023-01-29T14:04:21;101804.13;;;7.34;53.94
31299;BME280;17927;52.350;13.402;2023-01-29T14:06:53;101803.25;;;7.33;53.93
31299;BME280;17927;52.350;13.402;2023-01-29T14:12:04;101795.56;;;7.27;54.34
31299;BME280;17927;52.350;13.402;2023-01-29T14:14:58;101790.38;;;7.24;54.43
31299;BME280;17927;52.350;13.402;2023-01-29T14:17:25;101792.50;;;7.19;54.72
31299;BME280;17927;52.350;13.402;2023-01-29T14:19:55;101792.59;;;7.17;54.69